Αναφορές Αεροδρομίων

 

KSJC - San Jose, California, USA
Distance from station: ΒΑ 14km
Ενημερώθηκε: 12/04/2024 13:53
Μερικώς νεφελώδης
Μερικώς νεφελώδης
 Ανεμος από ΝΝΔ
Ανεμος: ΝΝΔ 22 km/h, Ριπή: 37 km/h
Θερμοκρασία: 19°C
Σημείο Δρόσου: 8°C
Υγρασία: 49%
Βαρόμετρο: 1008.1 hPa
Clouds: Μερικώς νεφελώδης
Visibility: 16 km
Cloud details: Μερικώς νεφελώδης 1067 m
Μερικώς νεφελώδης 2286 m
Μερικώς νεφελώδης 3658 m
2024/04/12 20:53 KSJC 122053Z 21012G20KT 10SM SCT035 SCT075 SCT120 19/08 A2977 RMK AO2 SLP082 T01940083 53007
KNUQ - Moffett Nas/Mtn, California, USA
Distance from station: Β 14km
Ενημερώθηκε: 12/04/2024 14:15
Μερικώς νεφελώδης
Μερικώς νεφελώδης
 Ανεμος από Β
Ανεμος: Β 20 km/h
Θερμοκρασία: 17°C
Σημείο Δρόσου: 10°C
Υγρασία: 64%
Βαρόμετρο: 1008.1 hPa
Clouds: Μερικώς νεφελώδης
Visibility: 16 km
Cloud details: Μερικώς νεφελώδης 1311 m
Μερικώς νεφελώδης 1676 m
2024/04/12 21:15 KNUQ 122115Z AUTO 01011KT 10SM SCT043 SCT055 17/10 A2977 RMK AO2
 
KPAO - Palo Alto, California, USA
Distance from station: ΒΒΔ 23km
Ενημερώθηκε: 12/04/2024 13:47
Μερικώς νεφελώδης
Μερικώς νεφελώδης
 Ανεμος από ΝΔ
Ανεμος: ΝΔ 24 km/h, Ριπή: 39 km/h
Θερμοκρασία: 17°C
Σημείο Δρόσου: 9°C
Υγρασία: 59%
Βαρόμετρο: 1008.5 hPa
Clouds: Μερικώς νεφελώδης
Visibility: 16 km
Cloud details: Μερικώς νεφελώδης 1219 m
2024/04/12 20:47 KPAO 122047Z 23013G21KT 10SM SCT040 17/09 A2978
KRHV - San Jose/Reid, California, USA
Distance from station: ΑΒΑ 19km
Ενημερώθηκε: 12/04/2024 13:47
Μερικώς νεφελώδης
Μερικώς νεφελώδης
 Ανεμος από ΝΑ
Ανεμος: ΝΑ 20 km/h
Θερμοκρασία: 19°C
Σημείο Δρόσου: 10°C
Υγρασία: 56%
Βαρόμετρο: 1008.5 hPa
Clouds: Μερικώς νεφελώδης
Visibility: 16 km
Cloud details: Μερικώς νεφελώδης 1524 m
2024/04/12 20:47 KRHV 122047Z 14011KT 10SM SCT050 19/10 A2978
 
KOAK - Oakland, California, USA
Distance from station: ΒΒΔ 50km
Ενημερώθηκε: 12/04/2024 13:53
Σχεδόν νεφελώδης
Σχεδόν νεφελώδης
 Ανεμος από Δ
Ανεμος: Δ 30 km/h
Θερμοκρασία: 16°C
Σημείο Δρόσου: 8°C
Υγρασία: 59%
Βαρόμετρο: 1009.1 hPa
Clouds: Σχεδόν νεφελώδης
Visibility: 16 km
Cloud details: Μερικώς νεφελώδης 610 m
Σχεδόν νεφελώδης 1524 m
2024/04/12 20:53 KOAK 122053Z 26016KT 10SM SCT020 BKN050 16/08 A2980 RMK AO2 SLP092 T01610078 51009
KSQL - San Carlos Airpo, California, USA
Distance from station: ΒΔ 34km
Ενημερώθηκε: 12/04/2024 13:48
Μερικώς νεφελώδης
Μερικώς νεφελώδης
 Ανεμος από ΝΝΔ
Ανεμος: ΝΝΔ 28 km/h, Ριπή: 48 km/h
Θερμοκρασία: 17°C
Σημείο Δρόσου: 8°C
Υγρασία: 56%
Βαρόμετρο: 1008.8 hPa
Clouds: Μερικώς νεφελώδης
Visibility: 16 km
Cloud details: Μερικώς νεφελώδης 457 m
2024/04/12 20:48 KSQL 122048Z 21015G26KT 10SM SCT015 17/08 A2979
 
KSFO - San Francisco, California, USA
Distance from station: ΒΔ 49km
Ενημερώθηκε: 12/04/2024 13:56
Σχεδόν νεφελώδης
Σχεδόν νεφελώδης
 Ανεμος από ΝΝΔ
Ανεμος: ΝΝΔ 26 km/h, Ριπή: 48 km/h
Θερμοκρασία: 15°C
Σημείο Δρόσου: 7°C
Υγρασία: 59%
Βαρόμετρο: 1009.1 hPa
Clouds: Σχεδόν νεφελώδης
Visibility: 16 km
Cloud details: Μερικώς νεφελώδης 853 m
Σχεδόν νεφελώδης 5486 m
2024/04/12 20:56 KSFO 122056Z 21014G26KT 10SM SCT028 BKN180 15/07 A2980 RMK AO2 PK WND 21028/2044 SLP090 T01500072 51009
KE16 - San Martin, California, USA
Distance from station: ΑΝΑ 43km
Ενημερώθηκε: 12/04/2024 14:15
Αίθριος
Αίθριος
 Ανεμος από ΔΝΔ
Ανεμος: ΔΝΔ 15 km/h
Θερμοκρασία: 15°C
Σημείο Δρόσου: 8°C
Υγρασία: 63%
Βαρόμετρο: 1010.5 hPa
Clouds: Αίθριος
Visibility: 16 km
2024/04/12 21:15 KE16 122115Z AUTO 24008KT 10SM CLR 15/08 A2984 RMK AO2 PWINO PNO
 
KWVI - Watsonville, California, USA
Distance from station: ΝΝΑ 44km
Ενημερώθηκε: 12/04/2024 13:53
Συννεφιά
Συννεφιά
 Ανεμος από Δ
Ανεμος: Δ 15 km/h
Θερμοκρασία: 14°C
Σημείο Δρόσου: 9°C
Υγρασία: 72%
Βαρόμετρο: 1010.5 hPa
Clouds: Συννεφιά
Visibility: 16 km
Cloud details: Συννεφιά 610 m
2024/04/12 20:53 KWVI 122053Z AUTO 26008KT 10SM OVC020 14/09 A2984 RMK AO2 SLP105 T01390089 53004
KHAF - Half Moon Bay, California, USA
Distance from station: ΔΒΔ 50km
Ενημερώθηκε: 12/04/2024 14:15
Συννεφιά
Συννεφιά
 Ανεμος από Ν
Ανεμος: Ν 19 km/h, Ριπή: 28 km/h
Θερμοκρασία: 13°C
Σημείο Δρόσου: 10°C
Υγρασία: 82%
Βαρόμετρο: 1009.8 hPa
Clouds: Συννεφιά
Visibility: 11 km
Cloud details: Συννεφιά 884 m
2024/04/12 21:15 KHAF 122115Z AUTO 19010G15KT 7SM OVC029 13/10 A2982 RMK AO2
 
KHWD - Hayward, California, USA
Distance from station: Β 44km
Ενημερώθηκε: 12/04/2024 13:54
Μερικώς νεφελώδης
Μερικώς νεφελώδης
 Ανεμος από Δ
Ανεμος: Δ 26 km/h, Ριπή: 41 km/h
Θερμοκρασία: 18°C
Σημείο Δρόσου: 9°C
Υγρασία: 56%
Βαρόμετρο: 1008.8 hPa
Clouds: Μερικώς νεφελώδης
Visibility: 16 km
Cloud details: Μερικώς νεφελώδης 1036 m
2024/04/12 20:54 KHWD 122054Z 26014G22KT 10SM SCT034 18/09 A2979 RMK AO2 SLP099 T01780089 51012
KLVK - Livermore, California, USA
Distance from station: ΒΒΑ 51km
Ενημερώθηκε: 12/04/2024 13:53
Αίθριος
Αίθριος
 Ανεμος από Δ
Ανεμος: Δ 24 km/h
Θερμοκρασία: 17°C
Σημείο Δρόσου: 9°C
Υγρασία: 59%
Βαρόμετρο: 1007.8 hPa
Clouds: Αίθριος
Visibility: 16 km
2024/04/12 20:53 KLVK 122053Z 27013KT 10SM CLR 17/09 A2976 RMK AO2 SLP075 T01670094 51011